createdAt,value
2022-09-12T00:05:33.373Z,2.13
2022-09-12T00:12:40.824Z,2.27
2022-09-12T00:19:43.877Z,2.30
2022-09-12T00:26:48.988Z,2.40
2022-09-12T00:33:52.041Z,2.60
2022-09-12T00:40:55.661Z,1.87
2022-09-12T00:48:04.367Z,2.27
2022-09-12T00:55:13.989Z,2.20
2022-09-12T01:02:18.385Z,1.90
2022-09-12T01:09:23.501Z,2.50
2022-09-12T01:16:26.958Z,2.10
2022-09-12T01:24:24.083Z,2.87
2022-09-12T01:31:49.007Z,2.60
2022-09-12T01:38:59.354Z,2.73
2022-09-12T01:46:34.208Z,2.20
2022-09-12T01:53:51.207Z,2.90
2022-09-12T02:01:10.088Z,2.70
2022-09-12T02:08:45.358Z,2.50
2022-09-12T02:16:05.137Z,3.00
2022-09-12T02:23:09.645Z,2.37
2022-09-12T02:30:16.568Z,3.30
2022-09-12T02:37:30.443Z,3.23
2022-09-12T02:44:33.507Z,3.37
2022-09-12T02:51:36.890Z,3.07
2022-09-12T02:58:43.305Z,3.00
2022-09-12T03:05:55.277Z,3.10
2022-09-12T03:13:06.285Z,3.20
2022-09-12T03:20:37.110Z,3.30
2022-09-12T03:27:50.705Z,3.30
2022-09-12T03:34:54.727Z,3.03
2022-09-12T03:41:57.905Z,3.40
2022-09-12T03:49:01.498Z,3.30
2022-09-12T03:56:04.655Z,3.67
2022-09-12T04:03:15.398Z,3.87
2022-09-12T04:10:18.457Z,3.33
2022-09-12T04:17:21.756Z,3.70
2022-09-12T04:24:24.825Z,3.87
2022-09-12T04:31:27.977Z,3.87
2022-09-12T04:38:31.534Z,4.27
2022-09-12T04:45:34.588Z,4.80
2022-09-12T04:52:39.673Z,4.47
2022-09-12T04:59:42.723Z,5.07
2022-09-12T05:06:47.371Z,5.30
2022-09-12T05:13:50.458Z,4.97
2022-09-12T05:20:53.566Z,5.20
2022-09-12T05:27:57.929Z,5.33
2022-09-12T05:35:01.345Z,5.67
2022-09-12T05:42:15.682Z,5.17
2022-09-12T05:49:18.784Z,7.07
2022-09-12T05:56:23.300Z,6.00
2022-09-12T06:03:27.099Z,6.50
2022-09-12T06:10:30.355Z,5.40
2022-09-12T06:17:36.202Z,6.77
2022-09-12T06:24:39.807Z,6.80
2022-09-12T06:31:42.935Z,6.70
2022-09-12T06:38:48.778Z,6.53
2022-09-12T06:45:51.903Z,6.80
2022-09-12T06:53:06.591Z,7.03
2022-09-12T07:00:09.667Z,7.03
2022-09-12T07:07:15.162Z,6.40
2022-09-12T07:14:18.413Z,5.80
2022-09-12T07:21:21.486Z,5.77
2022-09-12T07:28:24.748Z,7.00
2022-09-12T07:35:30.900Z,5.87
2022-09-12T07:42:35.777Z,6.10
2022-09-12T07:49:39.291Z,4.50
2022-09-12T07:56:42.318Z,3.37
2022-09-12T08:03:45.361Z,3.87
2022-09-12T08:10:48.997Z,2.50
2022-09-12T08:17:52.503Z,1.97
2022-09-12T08:25:01.202Z,1.90
2022-09-12T08:32:06.265Z,1.97
2022-09-12T08:39:09.423Z,1.23
2022-09-12T08:46:33.230Z,0.83
2022-09-12T08:53:44.693Z,1.10
2022-09-12T09:00:49.032Z,1.20
2022-09-12T09:08:18.656Z,0.60
2022-09-12T09:15:28.893Z,0.90
2022-09-12T09:23:12.983Z,0.90
2022-09-12T09:30:24.373Z,0.90
2022-09-12T09:37:42.753Z,0.80
2022-09-12T09:45:04.959Z,0.90
2022-09-12T09:52:10.009Z,1.40
2022-09-12T09:59:36.954Z,1.00
2022-09-12T10:06:54.965Z,1.40
2022-09-12T10:14:13.232Z,1.90
2022-09-12T10:21:42.453Z,0.97
2022-09-12T10:28:48.350Z,0.90
2022-09-12T10:35:52.185Z,1.20
2022-09-12T10:43:00.702Z,1.00
2022-09-12T10:50:23.857Z,0.97
2022-09-12T10:57:34.593Z,1.20
2022-09-12T11:05:22.942Z,1.23
2022-09-12T11:12:52.930Z,1.17
2022-09-12T11:20:24.940Z,1.40
2022-09-12T11:27:42.622Z,1.33
2022-09-12T11:34:55.775Z,0.90
2022-09-12T11:42:08.612Z,1.17
2022-09-12T11:49:20.016Z,1.27
2022-09-12T11:56:40.481Z,1.13
2022-09-12T12:04:12.071Z,0.87
2022-09-12T12:11:47.418Z,0.80
2022-09-12T12:19:08.726Z,1.17
2022-09-12T12:26:19.363Z,0.80
2022-09-12T12:33:23.847Z,0.80
2022-09-12T12:40:36.153Z,3.33
2022-09-12T12:47:41.250Z,1.20
2022-09-12T12:54:49.589Z,0.90
2022-09-12T13:02:24.789Z,1.13
2022-09-12T13:09:46.539Z,0.80
2022-09-12T13:16:54.369Z,0.77
2022-09-12T13:23:59.240Z,0.93
2022-09-12T13:31:17.058Z,0.90
2022-09-12T13:38:26.233Z,1.00
2022-09-12T13:46:00.240Z,1.13
2022-09-12T13:53:12.630Z,1.13
2022-09-12T14:00:20.013Z,1.10
2022-09-12T14:07:25.815Z,1.00
2022-09-12T14:14:31.476Z,0.83
2022-09-12T14:21:39.631Z,0.93
2022-09-12T14:28:49.341Z,1.10
2022-09-12T14:36:15.421Z,0.93
2022-09-12T14:43:45.185Z,1.27
2022-09-12T14:50:51.794Z,0.90
2022-09-12T14:58:04.249Z,1.20
2022-09-12T15:05:41.440Z,1.90
2022-09-12T15:12:44.983Z,1.03
2022-09-12T15:19:48.552Z,1.00
2022-09-12T15:26:51.670Z,1.50
2022-09-12T15:33:54.755Z,1.10
2022-09-12T15:40:57.869Z,1.60
2022-09-12T15:48:00.972Z,0.90
2022-09-12T15:55:06.084Z,1.77
2022-09-12T16:02:09.461Z,1.90
2022-09-12T16:09:16.555Z,1.23
2022-09-12T16:16:23.152Z,1.70
2022-09-12T16:23:26.305Z,2.90
2022-09-12T16:30:29.514Z,1.47
2022-09-12T16:37:34.554Z,1.70
2022-09-12T16:44:39.072Z,1.60
2022-09-12T16:51:44.896Z,1.80
2022-09-12T16:58:48.021Z,1.90
2022-09-12T17:05:54.352Z,2.00
2022-09-12T17:13:04.629Z,1.87
2022-09-12T17:20:08.517Z,2.57
2022-09-12T17:27:12.198Z,2.13
2022-09-12T17:34:16.313Z,2.60
2022-09-12T17:41:19.698Z,2.10
2022-09-12T17:48:23.755Z,2.70
2022-09-12T17:55:27.433Z,2.93
2022-09-12T18:02:33.307Z,3.30
2022-09-12T18:09:36.539Z,3.80
2022-09-12T18:16:40.134Z,3.33
2022-09-12T18:23:43.230Z,3.07
2022-09-12T18:30:46.640Z,3.37
2022-09-12T18:37:51.753Z,3.37
2022-09-12T18:45:00.055Z,3.57
2022-09-12T18:52:10.308Z,6.23
2022-09-12T18:59:14.259Z,4.07
2022-09-12T19:06:17.870Z,4.00
2022-09-12T19:13:21.665Z,3.27
2022-09-12T19:20:24.847Z,3.63
2022-09-12T19:27:27.952Z,3.60
2022-09-12T19:34:31.017Z,4.72
2022-09-12T19:41:34.065Z,4.28
2022-09-12T19:48:37.160Z,3.90
2022-09-12T19:55:40.313Z,4.50
2022-09-12T20:02:43.508Z,5.10
2022-09-12T20:09:48.431Z,4.40
2022-09-12T20:16:51.471Z,4.10
2022-09-12T20:23:55.332Z,4.90
2022-09-12T20:30:58.580Z,4.63
2022-09-12T20:38:10.011Z,4.80
2022-09-12T20:45:13.237Z,4.40
2022-09-12T20:52:16.892Z,4.50
2022-09-12T20:59:21.744Z,3.93
2022-09-12T21:06:24.813Z,3.83
2022-09-12T21:13:30.725Z,3.40
2022-09-12T21:20:34.427Z,3.40
2022-09-12T21:27:37.494Z,3.23
2022-09-12T21:34:41.765Z,3.57
2022-09-12T21:41:44.900Z,2.80
2022-09-12T21:48:48.431Z,3.20
2022-09-12T21:55:51.538Z,2.87
2022-09-12T22:02:54.601Z,3.10
2022-09-12T22:09:58.121Z,2.87
2022-09-12T22:17:01.905Z,2.77
2022-09-12T22:24:24.221Z,2.80
2022-09-12T22:31:27.598Z,2.80
2022-09-12T22:38:30.902Z,2.17
2022-09-12T22:45:35.313Z,2.57
2022-09-12T22:52:38.689Z,2.40
2022-09-12T22:59:41.753Z,2.83
2022-09-12T23:06:44.844Z,2.10
2022-09-12T23:13:47.916Z,2.30
2022-09-12T23:20:51.066Z,2.70
2022-09-12T23:28:14.504Z,2.80
2022-09-12T23:35:19.459Z,2.50
2022-09-12T23:42:23.012Z,2.70
2022-09-12T23:49:26.128Z,2.50
2022-09-12T23:56:29.165Z,2.80
